createdAt,value
2018-08-16T04:00:33.213Z,15.30
2018-08-16T04:03:02.202Z,15.30
2018-08-16T04:05:31.091Z,15.20
2018-08-16T04:07:59.959Z,15.20
2018-08-16T04:10:28.728Z,15.20
2018-08-16T04:12:58.524Z,15.30
2018-08-16T04:15:27.543Z,15.30
2018-08-16T04:17:57.256Z,15.40
2018-08-16T04:20:27.039Z,15.50
2018-08-16T04:22:56.932Z,15.50
2018-08-16T04:25:27.839Z,15.40
2018-08-16T04:27:58.465Z,15.40
2018-08-16T04:30:28.443Z,15.40
2018-08-16T04:32:57.595Z,15.60
2018-08-16T04:35:27.307Z,15.70
2018-08-16T04:37:56.405Z,15.80
2018-08-16T04:40:25.528Z,15.80
2018-08-16T04:42:54.818Z,15.90
2018-08-16T04:45:24.420Z,15.80
2018-08-16T04:47:54.362Z,15.70
2018-08-16T04:50:25.247Z,15.70
2018-08-16T04:52:55.164Z,15.80
2018-08-16T04:55:25.091Z,15.80
2018-08-16T04:57:55.515Z,15.80
2018-08-16T05:00:24.840Z,15.90
2018-08-16T05:02:53.676Z,16.00
2018-08-16T05:05:22.662Z,16.20
2018-08-16T05:07:52.127Z,16.50
2018-08-16T05:10:20.976Z,16.70
2018-08-16T05:12:49.830Z,16.80
2018-08-16T05:15:19.708Z,16.90
2018-08-16T05:17:49.624Z,17.10
2018-08-16T05:20:19.547Z,17.20
2018-08-16T05:22:49.298Z,17.40
2018-08-16T05:25:19.041Z,17.50
2018-08-16T05:27:49.960Z,17.60
2018-08-16T05:30:20.737Z,17.70
2018-08-16T05:32:50.695Z,17.80
2018-08-16T05:35:20.500Z,18.00
2018-08-16T05:37:50.387Z,18.20
2018-08-16T05:40:21.590Z,18.40
2018-08-16T05:42:52.749Z,18.60
2018-08-16T05:45:22.944Z,18.70
2018-08-16T05:47:52.786Z,18.90
2018-08-16T05:50:22.651Z,19.10
2018-08-16T05:52:53.220Z,19.20
2018-08-16T05:55:24.237Z,19.40
2018-08-16T05:57:55.151Z,19.70
2018-08-16T06:00:25.054Z,19.90
2018-08-16T06:02:54.879Z,20.10
2018-08-16T06:05:23.910Z,20.20
2018-08-16T06:07:54.576Z,20.20
2018-08-16T06:10:23.475Z,20.40
2018-08-16T06:12:53.234Z,20.40
2018-08-16T06:15:23.113Z,20.60
2018-08-16T06:17:52.915Z,20.80
2018-08-16T06:20:23.516Z,21.00
2018-08-16T06:22:53.486Z,21.20
2018-08-16T06:25:24.299Z,21.40
2018-08-16T06:27:54.013Z,21.40
2018-08-16T06:30:23.987Z,21.70
2018-08-16T06:32:53.678Z,22.00
2018-08-16T06:35:24.708Z,22.00
2018-08-16T06:37:54.544Z,22.20
2018-08-16T06:40:24.171Z,22.50
2018-08-16T06:42:53.209Z,22.90
2018-08-16T06:45:22.004Z,23.20
2018-08-16T06:47:51.627Z,23.30
2018-08-16T06:50:20.655Z,23.80
2018-08-16T06:52:49.430Z,24.20
2018-08-16T06:55:18.591Z,24.40
2018-08-16T06:57:48.263Z,24.40
2018-08-16T07:00:17.522Z,25.10
2018-08-16T07:02:47.898Z,25.50
2018-08-16T07:05:17.683Z,26.00
2018-08-16T07:07:47.505Z,26.50
2018-08-16T07:10:17.371Z,26.70
2018-08-16T07:12:46.963Z,27.10
2018-08-16T07:15:16.556Z,27.70
2018-08-16T07:17:45.939Z,27.90
2018-08-16T07:20:16.419Z,28.30
2018-08-16T07:22:46.502Z,28.10
2018-08-16T07:25:17.204Z,28.20
2018-08-16T07:27:47.313Z,28.40
2018-08-16T07:30:17.138Z,29.10
2018-08-16T07:32:46.973Z,30.30
2018-08-16T07:35:16.804Z,30.80
2018-08-16T07:37:47.244Z,30.80
2018-08-16T07:40:17.495Z,30.70
2018-08-16T07:42:47.276Z,31.00
2018-08-16T07:45:17.100Z,31.00
2018-08-16T07:47:46.996Z,31.70
2018-08-16T07:50:16.671Z,32.20
2018-08-16T07:52:46.415Z,32.30
2018-08-16T07:55:16.576Z,31.90
2018-08-16T07:57:46.399Z,32.20
2018-08-16T08:00:20.973Z,32.50
2018-08-16T08:02:51.711Z,32.90
2018-08-16T08:05:21.982Z,32.70
2018-08-16T08:07:51.781Z,32.90
2018-08-16T08:10:21.648Z,33.00
2018-08-16T08:12:52.165Z,33.20
2018-08-16T08:15:22.263Z,33.20
2018-08-16T08:17:51.768Z,34.20
2018-08-16T08:20:21.956Z,35.30
2018-08-16T08:22:51.740Z,35.50
2018-08-16T08:25:21.735Z,35.80
2018-08-16T08:27:51.128Z,36.40
2018-08-16T08:30:21.349Z,36.70
2018-08-16T08:32:51.215Z,35.80
2018-08-16T08:35:21.035Z,35.60
2018-08-16T08:38:00.994Z,35.30
2018-08-16T08:40:30.833Z,35.40
2018-08-16T08:43:00.664Z,35.70
2018-08-16T08:45:30.511Z,35.80
2018-08-16T08:48:00.341Z,35.80
2018-08-16T08:50:30.182Z,36.00
2018-08-16T08:53:11.037Z,35.40
2018-08-16T08:55:51.119Z,35.30
2018-08-16T08:58:31.082Z,36.30
2018-08-16T09:01:00.870Z,36.90
2018-08-16T09:03:31.762Z,36.40
2018-08-16T09:06:01.397Z,35.00
2018-08-16T09:08:33.371Z,34.70
2018-08-16T09:11:15.450Z,35.50
2018-08-16T09:13:58.436Z,35.60
2018-08-16T09:16:35.370Z,36.20
2018-08-16T09:19:05.233Z,36.50
2018-08-16T09:21:35.129Z,36.70
2018-08-16T09:24:04.730Z,36.90
2018-08-16T09:26:39.560Z,35.80
2018-08-16T09:31:23.262Z,33.60
2018-08-16T09:34:10.305Z,32.10
2018-08-16T09:36:40.028Z,30.30
2018-08-16T09:39:09.968Z,31.70
2018-08-16T09:41:39.828Z,34.40
2018-08-16T09:44:09.392Z,35.70
2018-08-16T09:46:52.378Z,35.60
2018-08-16T09:49:22.483Z,36.10
2018-08-16T09:51:52.335Z,36.10
2018-08-16T09:54:22.139Z,35.60
2018-08-16T09:56:53.049Z,35.90
2018-08-16T09:59:22.896Z,37.50
2018-08-16T10:01:53.567Z,36.70
2018-08-16T10:04:24.263Z,37.80
2018-08-16T10:06:54.436Z,37.30
2018-08-16T10:09:27.299Z,37.30
2018-08-16T10:11:58.092Z,37.80
2018-08-16T10:14:27.945Z,36.30
2018-08-16T10:16:57.715Z,35.00
2018-08-16T10:19:28.627Z,33.70
2018-08-16T10:21:59.411Z,32.30
2018-08-16T10:24:30.345Z,30.70
2018-08-16T10:27:01.175Z,29.90
2018-08-16T10:29:31.139Z,29.20
2018-08-16T10:32:00.948Z,31.10
2018-08-16T10:34:31.708Z,33.00
2018-08-16T10:37:02.619Z,34.20
2018-08-16T10:39:33.456Z,32.60
2018-08-16T10:42:04.057Z,31.60
2018-08-16T10:44:33.997Z,32.90
2018-08-16T10:47:03.780Z,34.10
2018-08-16T10:49:34.923Z,34.60
2018-08-16T10:52:04.756Z,35.00
2018-08-16T10:54:34.591Z,35.90
2018-08-16T10:57:04.431Z,36.30
2018-08-16T10:59:34.337Z,35.60
2018-08-16T11:02:04.852Z,35.40
2018-08-16T11:04:34.882Z,34.60
2018-08-16T11:07:04.816Z,34.00
2018-08-16T11:09:35.629Z,32.60
2018-08-16T11:12:05.556Z,31.80
2018-08-16T11:14:36.164Z,31.50
2018-08-16T11:17:06.127Z,32.70
2018-08-16T11:19:36.028Z,33.90
2018-08-16T11:22:06.576Z,35.30
2018-08-16T11:24:36.771Z,36.20
2018-08-16T11:27:07.528Z,34.60
2018-08-16T11:29:38.432Z,33.60
2018-08-16T11:32:08.284Z,32.20
2018-08-16T11:34:38.142Z,32.00
2018-08-16T11:37:09.094Z,33.00
2018-08-16T11:39:38.823Z,33.50
2018-08-16T11:42:09.391Z,34.30
2018-08-16T11:44:39.410Z,34.80
2018-08-16T11:47:09.295Z,34.10
2018-08-16T11:49:39.697Z,34.30
2018-08-16T11:52:10.676Z,34.40
2018-08-16T11:54:41.631Z,34.10
2018-08-16T11:57:12.755Z,34.40
2018-08-16T11:59:42.565Z,35.30
2018-08-16T12:02:12.513Z,35.20
2018-08-16T12:04:43.223Z,34.90
2018-08-16T12:07:13.124Z,34.90
2018-08-16T12:09:42.948Z,34.90
2018-08-16T12:12:12.799Z,34.60
2018-08-16T12:14:42.598Z,34.70
2018-08-16T12:17:12.471Z,34.90
2018-08-16T12:19:42.278Z,35.10
2018-08-16T12:22:12.171Z,35.30
2018-08-16T12:24:41.911Z,35.30
2018-08-16T12:27:12.751Z,34.90
2018-08-16T12:29:42.680Z,35.20
2018-08-16T12:32:12.507Z,35.10
2018-08-16T12:34:42.388Z,34.90
2018-08-16T12:37:13.135Z,35.10
2018-08-16T12:39:43.945Z,34.30
2018-08-16T12:42:13.966Z,34.30
2018-08-16T12:44:45.188Z,34.30
2018-08-16T12:47:14.602Z,33.80
2018-08-16T12:49:45.356Z,33.60
2018-08-16T12:52:16.029Z,34.00
2018-08-16T12:54:46.132Z,34.20
2018-08-16T12:57:16.756Z,34.00
2018-08-16T12:59:46.737Z,33.70
2018-08-16T13:02:16.689Z,33.30
2018-08-16T13:04:46.514Z,33.30
2018-08-16T13:07:17.182Z,33.40
2018-08-16T13:09:47.948Z,32.70
2018-08-16T13:12:18.703Z,32.70
2018-08-16T13:14:48.900Z,32.60
2018-08-16T13:17:19.630Z,32.10
2018-08-16T13:19:49.617Z,31.70
2018-08-16T13:22:19.447Z,30.50
2018-08-16T13:24:49.205Z,30.50
2018-08-16T13:27:19.133Z,31.00
2018-08-16T13:29:48.797Z,31.00
2018-08-16T13:32:20.837Z,30.90
2018-08-16T13:34:50.707Z,30.50
2018-08-16T13:37:20.524Z,30.80
2018-08-16T13:39:50.268Z,30.00
2018-08-16T13:42:20.128Z,30.20
2018-08-16T13:44:50.032Z,30.30
2018-08-16T13:47:19.846Z,30.60
2018-08-16T13:49:49.692Z,30.80
2018-08-16T13:52:20.260Z,30.60
2018-08-16T13:54:50.373Z,30.50
2018-08-16T13:57:20.217Z,30.30
2018-08-16T13:59:50.016Z,30.30
2018-08-16T14:02:20.614Z,30.00
2018-08-16T14:04:50.723Z,29.70
2018-08-16T14:07:20.551Z,29.70
2018-08-16T14:09:50.435Z,29.40
2018-08-16T14:12:20.253Z,29.30
2018-08-16T14:14:50.046Z,29.40
2018-08-16T14:17:19.915Z,29.40
2018-08-16T14:19:49.744Z,29.00
2018-08-16T14:22:20.299Z,28.80
2018-08-16T14:24:50.448Z,28.80
2018-08-16T14:27:21.415Z,28.60
2018-08-16T14:29:52.364Z,29.00
2018-08-16T14:32:22.064Z,28.80
2018-08-16T14:34:51.824Z,28.90
2018-08-16T14:37:22.579Z,28.90
2018-08-16T14:39:52.480Z,29.00
2018-08-16T14:42:22.319Z,28.60
2018-08-16T14:44:52.665Z,28.60
2018-08-16T14:47:23.021Z,28.30
2018-08-16T14:49:52.851Z,28.20
2018-08-16T14:52:22.653Z,28.00
2018-08-16T14:54:53.273Z,27.90
2018-08-16T14:57:23.355Z,27.90
2018-08-16T14:59:54.089Z,27.90
2018-08-16T15:02:23.888Z,28.20
2018-08-16T15:04:53.743Z,28.10
2018-08-16T15:07:25.656Z,28.10
2018-08-16T15:09:55.552Z,28.10
2018-08-16T15:12:25.312Z,28.20
2018-08-16T15:14:55.244Z,28.10
2018-08-16T15:17:25.069Z,27.90
2018-08-16T15:19:55.676Z,27.80
2018-08-16T15:22:26.698Z,27.70
2018-08-16T15:24:56.579Z,27.50
2018-08-16T15:27:26.282Z,27.40
2018-08-16T15:29:56.927Z,27.40
2018-08-16T15:32:27.428Z,27.30
2018-08-16T15:34:56.943Z,27.20
2018-08-16T15:37:26.785Z,27.10
2018-08-16T15:39:56.642Z,27.10
2018-08-16T15:42:27.444Z,26.90
2018-08-16T15:44:57.247Z,26.80
2018-08-16T15:47:27.030Z,26.50
2018-08-16T15:49:57.877Z,26.50
2018-08-16T15:52:27.744Z,26.40
2018-08-16T15:54:57.529Z,26.40
2018-08-16T15:57:28.185Z,26.40
2018-08-16T15:59:59.034Z,26.30
2018-08-16T16:02:29.151Z,26.30
2018-08-16T16:04:58.965Z,26.20
2018-08-16T16:07:28.796Z,26.10
2018-08-16T16:09:58.479Z,25.80
2018-08-16T16:12:29.087Z,25.80
2018-08-16T16:14:59.292Z,25.60
2018-08-16T16:17:29.159Z,25.50
2018-08-16T16:19:58.911Z,25.30
2018-08-16T16:22:28.878Z,25.30
2018-08-16T16:24:58.756Z,25.30
2018-08-16T16:27:28.479Z,25.20
2018-08-16T16:29:58.313Z,25.00
2018-08-16T16:32:28.153Z,24.90
2018-08-16T16:34:57.987Z,24.80
2018-08-16T16:37:27.759Z,24.60
2018-08-16T16:39:57.688Z,24.40
2018-08-16T16:42:28.647Z,24.20
2018-08-16T16:44:58.438Z,24.10
2018-08-16T16:47:29.222Z,24.00
2018-08-16T16:49:59.769Z,23.80
2018-08-16T16:52:29.807Z,23.60
2018-08-16T16:54:59.631Z,23.50
2018-08-16T16:57:30.318Z,23.20
2018-08-16T17:00:01.136Z,23.00
2018-08-16T17:02:32.170Z,22.70
2018-08-16T17:05:02.093Z,22.50
2018-08-16T17:07:31.832Z,22.30
2018-08-16T17:10:01.704Z,22.10
2018-08-16T17:12:31.623Z,21.90
2018-08-16T17:15:01.455Z,21.60
2018-08-16T17:17:31.073Z,21.50
2018-08-16T17:20:01.060Z,21.40
2018-08-16T17:22:31.696Z,21.20
2018-08-16T17:25:01.830Z,21.10
2018-08-16T17:27:32.468Z,21.00
2018-08-16T17:30:03.239Z,20.90
2018-08-16T17:32:33.244Z,20.80
2018-08-16T17:35:04.247Z,20.70
2018-08-16T17:37:35.060Z,20.50
2018-08-16T17:40:05.808Z,20.40
2018-08-16T17:42:35.715Z,20.30
2018-08-16T17:45:05.544Z,20.30
2018-08-16T17:47:35.416Z,20.10
2018-08-16T17:50:05.763Z,20.00
2018-08-16T17:52:36.732Z,19.90
2018-08-16T17:55:07.703Z,19.70
2018-08-16T17:57:37.824Z,19.70
2018-08-16T18:00:08.655Z,19.60
2018-08-16T18:02:38.392Z,19.40
2018-08-16T18:05:09.067Z,19.30
2018-08-16T18:07:39.203Z,19.20
2018-08-16T18:10:10.034Z,19.10
2018-08-16T18:12:40.666Z,19.00
2018-08-16T18:15:11.739Z,18.90
2018-08-16T18:17:41.545Z,18.70
2018-08-16T18:20:12.033Z,18.60
2018-08-16T18:22:42.247Z,18.50
2018-08-16T18:25:12.081Z,18.40
2018-08-16T18:27:42.651Z,18.20
2018-08-16T18:30:13.664Z,18.20
2018-08-16T18:32:43.633Z,18.20
2018-08-16T18:35:13.351Z,18.00
2018-08-16T18:37:43.287Z,17.90
2018-08-16T18:40:13.959Z,17.80
2018-08-16T18:42:43.437Z,17.70
2018-08-16T18:45:12.776Z,17.60
2018-08-16T18:47:42.351Z,17.60
2018-08-16T18:50:11.444Z,17.50
2018-08-16T18:52:41.308Z,17.50
2018-08-16T18:55:11.131Z,17.40
2018-08-16T18:57:40.954Z,17.40
2018-08-16T19:00:10.795Z,17.30
2018-08-16T19:02:40.640Z,17.30
2018-08-16T19:05:10.514Z,17.20
2018-08-16T19:07:41.334Z,17.10
2018-08-16T19:10:11.160Z,17.00
2018-08-16T19:12:41.004Z,17.00
2018-08-16T19:15:10.865Z,16.90
2018-08-16T19:17:40.698Z,16.90
2018-08-16T19:20:10.527Z,16.90
2018-08-16T19:22:40.361Z,16.80
2018-08-16T19:25:10.202Z,16.70
2018-08-16T19:27:41.026Z,16.70
2018-08-16T19:30:10.924Z,16.60
2018-08-16T19:32:41.387Z,16.60
2018-08-16T19:35:11.563Z,16.60
2018-08-16T19:37:41.337Z,16.40
2018-08-16T19:40:11.248Z,16.40
2018-08-16T19:42:41.087Z,16.30
2018-08-16T19:45:10.910Z,16.30
2018-08-16T19:47:40.740Z,16.20
2018-08-16T19:50:11.411Z,16.20
2018-08-16T19:52:41.340Z,16.20
2018-08-16T19:55:11.165Z,16.10
2018-08-16T19:57:42.125Z,16.10
2018-08-16T20:00:11.976Z,16.00
2018-08-16T20:02:42.507Z,16.00
2018-08-16T20:05:12.572Z,15.90
2018-08-16T20:07:43.428Z,15.90
2018-08-16T20:10:14.268Z,15.80
2018-08-16T20:12:45.136Z,15.80
2018-08-16T20:15:15.027Z,15.80
2018-08-16T20:17:45.619Z,15.80
2018-08-16T20:20:15.702Z,15.80
2018-08-16T20:22:45.124Z,15.80
2018-08-16T20:25:14.399Z,15.70
2018-08-16T20:27:43.930Z,15.70
2018-08-16T20:30:13.077Z,15.70
2018-08-16T20:32:43.702Z,15.60
2018-08-16T20:35:12.765Z,15.60
2018-08-16T20:37:42.438Z,15.50
2018-08-16T20:40:11.451Z,15.50
2018-08-16T20:42:41.247Z,15.50
2018-08-16T20:45:12.027Z,15.40
2018-08-16T20:47:42.645Z,15.40
2018-08-16T20:50:13.583Z,15.40
2018-08-16T20:52:43.629Z,15.40
2018-08-16T20:55:13.462Z,15.30
2018-08-16T20:57:43.123Z,15.30
2018-08-16T21:00:13.148Z,15.30
2018-08-16T21:02:42.230Z,15.20
2018-08-16T21:05:11.487Z,15.20
2018-08-16T21:07:41.192Z,15.10
2018-08-16T21:10:12.450Z,15.10
2018-08-16T21:12:42.330Z,15.10
2018-08-16T21:15:12.068Z,15.20
2018-08-16T21:17:40.984Z,15.20
2018-08-16T21:20:10.063Z,15.20
2018-08-16T21:22:39.395Z,15.20
2018-08-16T21:25:09.367Z,15.20
2018-08-16T21:27:39.224Z,15.20
2018-08-16T21:30:09.104Z,15.20
2018-08-16T21:32:38.983Z,15.10
2018-08-16T21:35:07.843Z,15.10
2018-08-16T21:37:36.604Z,15.00
2018-08-16T21:40:06.877Z,15.00
2018-08-16T21:42:37.340Z,15.00
2018-08-16T21:45:07.224Z,15.00
2018-08-16T21:47:37.732Z,15.10
2018-08-16T21:50:07.890Z,15.20
2018-08-16T21:52:38.400Z,15.10
2018-08-16T21:55:09.695Z,15.10
2018-08-16T21:57:38.639Z,15.10
2018-08-16T22:00:08.924Z,15.00
